Share

Marrakesch, Marokko

Menara (GMMX) Höhe 1529 ft | 31.61 °N, 8.04 °W | Change Station

Current weather conditions updated 22 minutes ago

Mostly Cloudy
Wolkig
57 °F
gefühlte 57 °F
N
5
Wind Wechselnd Wind aus Süd-Südwest
Sonnenaufgang 5:57 AM
Sonnenuntergang 7:04 PM
Mond Drittes Viertel

Heute wird es voraussichtlich viel kälter als gestern. Nachmittags Schauer..

Druck 29.89 inch
Sichtweite 5.0 Meilen
Wolken Wolkig 2000 ft
Taupunkt 52 °F
Feuchtigkeit 82%
Regen 0.00 inch
Schneehöhe Nicht verfügbar..
UV 0 von 16
Pollen Nicht verfügbar..
Luftqualität Nicht verfügbar..
Flu Activity Nicht verfügbar..
METAR GMMX 210700Z 21004KT 180V250 8000 BKN020 14/11 Q1012 NOSIG

More Conditions Fewer Conditions

Druck 29.89 inch
Sichtweite 5.0 Meilen
Wolken Wolkig 2000 ft
Taupunkt 52 °F
Feuchtigkeit 82%
Regen 0.00 inch
Schneehöhe Nicht verfügbar..
UV 0 von 16
Pollen Nicht verfügbar..
Luftqualität Nicht verfügbar..
Flu Activity Nicht verfügbar..
METAR GMMX 210700Z 21004KT 180V250 8000 BKN020 14/11 Q1012 NOSIG

More Conditions Fewer Conditions

10-Day Weather Forecast

Almanac

Astronomie

Apr. 21, 2014 Aufgang Untergang
Genaue Zeit 05:57 WET 19:04 WET
Bürgerliche Dämmerung 05:31 WET 19:30 WET
Nautische Dämmerung 05:01 WET 20:00 WET
Astronomische Dämmerung 04:30 WET 20:31 WET
Mond 00:18 WET 11:13 WET
Länge des sichtbaren Lichts 13h 58m
Tageslänge
13h 07m
Tomorrow will be 1m 46s longer.
Drittes Viertel, 62% of the Moon is Illuminated
Heute
Drittes Viertel
Apr 22
Letztes Viertel
Apr 29
Neu
Mai 6
Erstes Viertel
Mai 14
Vollmond

Gestrige Extrema

Country Highs Country Lows

Community

  • Snowy Robin
    Snowy Robin
  • Sun Pillar and Geese
    Sun Pillar and Geese
  • Showers on the Way
    Showers on the Way
  • Easter Morning Fog
    Easter Morning Fog
  • Easter Dance
    Easter Dance

WunderPhotos

Upload Photos

1,703,572 Fotos hochgeladen!

WunderBlogs® & News

Nearby

Schneehöhe

Not available.

küstennahe Wassertemperaturen

Ort Temperatur
Kein Stationsbericht

Erdbebenaktivität

Stadt Distance Mag. Time & Date
No recent earthquake activity has been reported nearby.
Minimum magnitude displayed is 2.5.

Wetterstationen in der Umgebung

Es gibt keine Persönlichen Wetterstationen in dieser Region.

What do you think?

We're not finished. Please let us know what you like, what you don't like, and what you are still missing.